createdAt,value
2019-02-26T00:01:59.931Z,19.10
2019-02-26T00:07:01.628Z,20.17
2019-02-26T00:12:06.448Z,19.23
2019-02-26T00:17:13.041Z,19.20
2019-02-26T00:22:16.579Z,19.27
2019-02-26T00:27:19.594Z,19.53
2019-02-26T00:32:27.134Z,18.13
2019-02-26T00:37:31.368Z,18.13
2019-02-26T00:42:36.159Z,18.17
2019-02-26T00:47:39.545Z,18.73
2019-02-26T00:52:43.548Z,19.30
2019-02-26T00:57:45.560Z,18.10
2019-02-26T01:02:48.897Z,17.53
2019-02-26T01:07:52.564Z,18.07
2019-02-26T01:12:56.494Z,17.87
2019-02-26T01:18:01.428Z,18.10
2019-02-26T01:23:03.344Z,18.63
2019-02-26T01:28:08.384Z,19.23
2019-02-26T01:33:10.598Z,18.47
2019-02-26T01:38:14.836Z,20.50
2019-02-26T01:43:20.033Z,17.80
2019-02-26T01:48:24.301Z,18.33
2019-02-26T01:53:28.426Z,17.20
2019-02-26T01:58:33.481Z,17.57
2019-02-26T02:03:35.739Z,18.73
2019-02-26T02:08:41.305Z,19.67
2019-02-26T02:13:43.777Z,19.93
2019-02-26T02:18:48.080Z,19.80
2019-02-26T02:23:50.901Z,19.73
2019-02-26T02:28:56.506Z,19.40
2019-02-26T02:34:00.264Z,20.67
2019-02-26T02:39:02.303Z,20.87
2019-02-26T02:44:07.524Z,20.77
2019-02-26T02:49:10.399Z,20.67
2019-02-26T02:54:20.853Z,20.00
2019-02-26T02:59:22.318Z,19.77
2019-02-26T03:04:31.118Z,20.93
2019-02-26T03:09:43.231Z,20.17
2019-02-26T03:14:51.069Z,20.37
2019-02-26T03:19:55.860Z,19.63
2019-02-26T03:24:59.531Z,21.10
2019-02-26T03:30:06.943Z,20.77
2019-02-26T03:35:10.254Z,22.87
2019-02-26T03:40:17.308Z,21.17
2019-02-26T03:45:24.794Z,21.33
2019-02-26T03:50:28.688Z,20.97
2019-02-26T03:55:33.357Z,19.53
2019-02-26T04:00:37.636Z,21.60
2019-02-26T04:05:39.192Z,21.73
2019-02-26T04:10:41.379Z,22.17
2019-02-26T04:15:43.695Z,22.23
2019-02-26T04:20:45.815Z,21.77
2019-02-26T04:26:34.427Z,21.23
2019-02-26T04:32:23.559Z,21.87
2019-02-26T04:38:26.687Z,21.40
2019-02-26T04:44:31.348Z,22.17
2019-02-26T04:49:36.194Z,21.67
2019-02-26T04:54:39.858Z,22.23
2019-02-26T04:59:43.924Z,21.47
2019-02-26T05:04:52.648Z,22.53
2019-02-26T05:09:56.904Z,22.80
2019-02-26T05:15:00.760Z,23.03
2019-02-26T05:20:07.295Z,23.07
2019-02-26T05:25:17.049Z,22.83
2019-02-26T05:30:21.723Z,23.07
2019-02-26T05:35:25.276Z,22.20
2019-02-26T05:40:30.472Z,23.60
2019-02-26T05:45:35.759Z,23.20
2019-02-26T05:50:38.462Z,23.43
2019-02-26T05:55:47.782Z,22.93
2019-02-26T06:00:49.818Z,25.10
2019-02-26T06:05:54.933Z,24.03
2019-02-26T06:11:00.173Z,22.93
2019-02-26T06:16:04.790Z,23.70
2019-02-26T06:21:10.233Z,25.20
2019-02-26T06:26:17.859Z,23.60
2019-02-26T06:31:22.090Z,23.43
2019-02-26T06:36:25.781Z,24.80
2019-02-26T06:41:32.084Z,23.93
2019-02-26T06:46:35.915Z,22.77
2019-02-26T06:51:40.483Z,21.63
2019-02-26T06:56:46.121Z,22.60
2019-02-26T07:01:55.582Z,22.33
2019-02-26T07:07:04.439Z,23.17
2019-02-26T07:12:08.745Z,23.60
2019-02-26T07:17:13.681Z,22.47
2019-02-26T07:22:16.488Z,22.63
2019-02-26T07:27:22.911Z,23.97
2019-02-26T07:32:28.920Z,24.37
2019-02-26T07:37:33.266Z,23.03
2019-02-26T07:42:37.281Z,23.60
2019-02-26T07:47:41.142Z,24.57
2019-02-26T07:52:51.665Z,26.80
2019-02-26T07:57:53.389Z,28.30
2019-02-26T08:02:58.023Z,27.37
2019-02-26T08:08:00.863Z,27.33
2019-02-26T08:13:03.900Z,27.47
2019-02-26T08:18:09.504Z,25.53
2019-02-26T08:23:19.896Z,24.37
2019-02-26T08:28:24.824Z,23.63
2019-02-26T08:33:27.929Z,22.10
2019-02-26T08:38:30.310Z,20.00
2019-02-26T08:43:34.201Z,21.50
2019-02-26T08:48:36.286Z,20.00
2019-02-26T08:53:41.094Z,19.97
2019-02-26T08:58:45.355Z,20.63
2019-02-26T09:03:50.690Z,20.97
2019-02-26T09:08:55.155Z,20.47
2019-02-26T09:13:59.394Z,20.87
2019-02-26T09:19:01.654Z,20.00
2019-02-26T09:24:05.406Z,21.17
2019-02-26T09:29:12.572Z,22.07
2019-02-26T09:34:16.984Z,21.60
2019-02-26T09:39:22.946Z,21.10
2019-02-26T09:44:28.638Z,20.37
2019-02-26T09:49:33.147Z,21.93
2019-02-26T09:54:40.453Z,22.43
2019-02-26T09:59:39.988Z,23.20
2019-02-26T10:04:45.515Z,23.07
2019-02-26T10:09:48.580Z,21.23
2019-02-26T10:14:52.297Z,20.00
2019-02-26T10:19:59.353Z,21.30
2019-02-26T10:25:04.627Z,22.23
2019-02-26T10:30:11.293Z,20.53
2019-02-26T10:35:18.042Z,20.30
2019-02-26T10:40:19.713Z,20.57
2019-02-26T10:45:23.683Z,20.13
2019-02-26T10:50:31.130Z,19.80
2019-02-26T10:55:38.410Z,20.57
2019-02-26T11:00:38.147Z,22.40
2019-02-26T11:05:45.037Z,21.10
2019-02-26T11:10:52.194Z,19.63
2019-02-26T11:15:56.594Z,18.67
2019-02-26T11:21:00.840Z,19.97
2019-02-26T11:26:06.113Z,20.00
2019-02-26T11:31:14.042Z,20.03
2019-02-26T11:36:16.805Z,20.13
2019-02-26T11:41:18.960Z,20.47
2019-02-26T11:46:23.094Z,18.40
2019-02-26T11:51:24.946Z,18.30
2019-02-26T11:56:29.028Z,17.40
2019-02-26T12:01:32.237Z,16.93
2019-02-26T12:06:42.410Z,16.97
2019-02-26T12:11:44.621Z,15.17
2019-02-26T12:16:46.745Z,15.73
2019-02-26T12:21:49.513Z,14.43
2019-02-26T12:26:57.287Z,13.47
2019-02-26T12:32:04.578Z,13.30
2019-02-26T12:37:11.163Z,12.43
2019-02-26T12:42:18.474Z,11.53
2019-02-26T12:47:24.471Z,11.80
2019-02-26T12:52:26.915Z,12.20
2019-02-26T12:57:29.659Z,11.00
2019-02-26T13:02:36.924Z,11.50
2019-02-26T13:07:38.362Z,11.60
2019-02-26T13:12:47.133Z,8.70
2019-02-26T13:17:52.370Z,8.30
2019-02-26T13:23:00.594Z,8.10
2019-02-26T13:27:59.860Z,7.60
2019-02-26T13:33:05.239Z,6.97
2019-02-26T13:38:09.170Z,7.47
2019-02-26T13:43:13.931Z,8.80
2019-02-26T13:48:19.728Z,8.83
2019-02-26T13:53:26.575Z,9.50
2019-02-26T13:58:34.036Z,9.37
2019-02-26T14:03:39.210Z,9.07
2019-02-26T14:08:41.278Z,8.57
2019-02-26T14:13:43.314Z,7.97
2019-02-26T14:18:48.267Z,8.43
2019-02-26T14:23:52.788Z,7.70
2019-02-26T14:28:56.294Z,6.70
2019-02-26T14:34:00.141Z,7.93
2019-02-26T14:39:04.089Z,8.70
2019-02-26T14:44:06.145Z,9.67
2019-02-26T14:49:08.206Z,9.93
2019-02-26T14:54:10.501Z,11.33
2019-02-26T14:59:12.586Z,12.53
2019-02-26T15:04:14.860Z,13.10
2019-02-26T15:09:18.791Z,14.03
2019-02-26T15:14:23.917Z,12.33
2019-02-26T15:19:30.437Z,12.00
2019-02-26T15:24:40.695Z,13.57
2019-02-26T15:29:42.835Z,13.43
2019-02-26T15:34:45.103Z,13.47
2019-02-26T15:39:47.146Z,13.77
2019-02-26T15:44:49.178Z,13.10
2019-02-26T15:49:56.168Z,14.30
2019-02-26T15:55:01.034Z,14.40
2019-02-26T16:00:06.186Z,14.23
2019-02-26T16:05:11.019Z,13.40
2019-02-26T16:10:13.445Z,14.03
2019-02-26T16:15:17.528Z,14.67
2019-02-26T16:20:21.550Z,13.37
2019-02-26T16:25:26.781Z,13.70
2019-02-26T16:30:30.598Z,13.40
2019-02-26T16:35:37.258Z,14.57
2019-02-26T16:40:39.317Z,14.50
2019-02-26T16:45:45.761Z,14.33
2019-02-26T16:50:52.311Z,14.50
2019-02-26T16:55:54.681Z,14.30
2019-02-26T17:00:56.707Z,13.87
2019-02-26T17:05:59.156Z,14.90
2019-02-26T17:11:01.219Z,14.33
2019-02-26T17:16:05.745Z,14.20
2019-02-26T17:21:07.818Z,14.73
2019-02-26T17:26:09.920Z,14.60
2019-02-26T17:31:11.929Z,14.73
2019-02-26T17:36:20.861Z,14.83
2019-02-26T17:41:25.786Z,15.47
2019-02-26T17:46:28.101Z,17.48
2019-02-26T17:51:34.096Z,17.37
2019-02-26T17:56:39.154Z,21.20
2019-02-26T18:01:44.456Z,28.03
2019-02-26T18:06:46.512Z,29.63
2019-02-26T18:11:48.937Z,24.13
2019-02-26T18:16:51.132Z,19.80
2019-02-26T18:21:59.186Z,21.87
2019-02-26T18:27:03.682Z,19.53
2019-02-26T18:32:05.762Z,20.93
2019-02-26T18:37:07.880Z,21.80
2019-02-26T18:42:09.895Z,21.17
2019-02-26T18:47:14.013Z,19.90
2019-02-26T18:52:16.635Z,21.30
2019-02-26T18:57:22.690Z,21.47
2019-02-26T19:02:26.311Z,20.60
2019-02-26T19:07:33.105Z,20.77
2019-02-26T19:12:33.917Z,19.57
2019-02-26T19:17:36.088Z,18.73
2019-02-26T19:22:43.211Z,17.83
2019-02-26T19:27:45.343Z,17.90
2019-02-26T19:32:48.300Z,17.60
2019-02-26T19:37:57.124Z,19.23
2019-02-26T19:42:59.520Z,18.53
2019-02-26T19:48:01.629Z,19.23
2019-02-26T19:53:06.006Z,20.10
2019-02-26T19:58:09.711Z,19.47
2019-02-26T20:03:13.139Z,19.73
2019-02-26T20:08:17.837Z,19.17
2019-02-26T20:13:19.910Z,19.77
2019-02-26T20:18:25.843Z,20.30
2019-02-26T20:23:27.306Z,19.93
2019-02-26T20:28:29.325Z,19.97
2019-02-26T20:33:31.621Z,20.97
2019-02-26T20:38:35.289Z,21.40
2019-02-26T20:43:39.799Z,20.53
2019-02-26T20:48:41.818Z,20.47
2019-02-26T20:53:44.509Z,20.87
2019-02-26T20:58:46.698Z,21.37
2019-02-26T21:03:49.895Z,21.77
2019-02-26T21:08:53.319Z,21.43
2019-02-26T21:13:58.949Z,22.00
2019-02-26T21:19:02.873Z,22.37
2019-02-26T21:24:08.997Z,23.03
2019-02-26T21:29:15.715Z,21.70
2019-02-26T21:36:36.613Z,22.23
2019-02-26T21:41:40.775Z,22.17
2019-02-26T21:46:43.033Z,23.27
2019-02-26T21:51:47.803Z,23.27
2019-02-26T21:56:51.877Z,24.00
2019-02-26T22:01:53.988Z,24.33
2019-02-26T22:06:56.191Z,24.77
2019-02-26T22:11:58.462Z,23.77
2019-02-26T22:17:00.817Z,23.33
2019-02-26T22:22:05.298Z,24.00
2019-02-26T22:27:13.453Z,24.10
2019-02-26T22:32:21.762Z,23.47
2019-02-26T22:37:25.996Z,25.63
2019-02-26T22:42:28.139Z,24.83
2019-02-26T22:47:30.142Z,25.47
2019-02-26T22:52:35.199Z,23.63
2019-02-26T22:57:37.221Z,24.30
2019-02-26T23:02:40.819Z,24.00
2019-02-26T23:07:46.452Z,23.80
2019-02-26T23:12:48.630Z,22.77
2019-02-26T23:17:58.208Z,23.77
2019-02-26T23:22:57.820Z,24.70
2019-02-26T23:27:59.858Z,24.30
2019-02-26T23:33:07.853Z,24.80
2019-02-26T23:38:14.776Z,24.47
2019-02-26T23:43:18.892Z,24.33
2019-02-26T23:48:20.893Z,25.13
2019-02-26T23:53:22.961Z,24.70
2019-02-26T23:58:30.713Z,23.83
